PAJN/JNU METAR and TAF weather

Enter ICAO airport designator
Station Type Date Time Source
PAJN METAR 2021/08/05 04:53 UTC NOAA

PAJN 050453Z 08008KT 10SM FEW010 BKN038 OVC100 16/14 A2981 RMK AO2 RAE40 SLP094 PRESENT WX VCSH N-SE P0000 T01560139


Station Type Date Time Source
PAJN Decoded METAR 2021/08/05 04:53 UTC NOAA

JUNEAU INTERNATIONAL AIRPORT, AK, United States (PAJN) 58-21N 134-34W 8M
Aug 05, 2021 - 12:53 AM EDT / 2021.08.05 0453 UTC
Wind: from the E (080 degrees) at 9 MPH (8 KT):0
Visibility: 10 mile(s):0
Sky conditions: overcast
Precipitation last hour: A trace
Temperature: 60.1 F (15.6 C)
Dew Point: 57.0 F (13.9 C)
Relative Humidity: 89%
Pressure (altimeter): 29.81 in. Hg (1009 hPa)
ob: PAJN 050453Z 08008KT 10SM FEW010 BKN038 OVC100 16/14 A2981 RMK AO2 RAE40 SLP094 PRESENT WX VCSH N-SE P0000 T01560139
cycle: 5

Station Type Date Time Source
PAJN TAF 2021/08/04 18:27 UTC NOAA

TAF PAJN 041724Z 0418/0518 VRB03KT P6SM -RA FEW007 SCT070 OVC100
FM042000 14009KT P6SM -RA FEW008 OVC050
FM050900 11006KT P6SM -RA OVC050
FM051300 09003KT 4SM -RA OVC040

Example: see airport list